Brownsville, Illinois
Current Conditions -  °F | °C
As of 2:35 AM on Friday 31 Oct 2014 (Local Time) from KCUL Reporting Station
Overcast Overcast  
Wind Chill: 50°   Ceiling: 3800
Heat Index: 50°   Visibility: 7mi
Dew Point: 49°   Wind: 6mph
Humidity: 95%   Direction: 30°NNE
Pressure: 30.02"   Gusts: NA
Location:  38.0491°N, 88.1124°W
Report Text: KCUL 310735Z AUTO 03005KT 7SM OVC038 10/09 A3002 RMK AO2 T01010094
Loading
Personal Weather Stations






























Interactive Weather Map
Tropical Storm Tracking
New forecast layout! Learn more

10-Day Weather Forecast

Advertisements
Track Severe Weather on mobile